createdAt,value
2023-05-14T00:02:24.592Z,54.14
2023-05-14T00:05:08.450Z,54.42
2023-05-14T00:07:51.586Z,53.92
2023-05-14T00:10:34.792Z,53.95
2023-05-14T00:13:19.198Z,54.12
2023-05-14T00:16:02.385Z,54.47
2023-05-14T00:18:45.533Z,54.30
2023-05-14T00:21:28.738Z,54.12
2023-05-14T00:24:11.883Z,54.83
2023-05-14T00:26:54.997Z,54.84
2023-05-14T00:29:39.495Z,54.82
2023-05-14T00:32:22.700Z,54.42
2023-05-14T00:35:06.642Z,54.73
2023-05-14T00:37:49.729Z,55.09
2023-05-14T00:40:33.110Z,54.81
2023-05-14T00:43:16.257Z,54.66
2023-05-14T00:46:01.099Z,55.44
2023-05-14T00:48:44.435Z,54.04
2023-05-14T00:51:27.490Z,53.82
2023-05-14T00:54:10.907Z,54.83
2023-05-14T00:56:55.547Z,54.13
2023-05-14T00:59:41.053Z,54.99
2023-05-14T01:02:25.830Z,54.39
2023-05-14T01:05:10.202Z,54.45
2023-05-14T01:08:01.895Z,55.73
2023-05-14T01:10:52.572Z,56.78
2023-05-14T01:13:44.869Z,55.43
2023-05-14T01:16:33.296Z,55.62
2023-05-14T01:19:27.581Z,54.93
2023-05-14T01:22:12.711Z,54.23
2023-05-14T01:24:56.017Z,54.44
2023-05-14T01:27:45.723Z,55.28
2023-05-14T01:30:33.141Z,55.43
2023-05-14T01:33:19.344Z,55.50
2023-05-14T01:36:03.101Z,55.25
2023-05-14T01:38:51.302Z,55.60
2023-05-14T01:41:34.770Z,55.26
2023-05-14T01:44:18.775Z,55.32
2023-05-14T01:47:01.869Z,54.49
2023-05-14T01:49:44.955Z,54.47
2023-05-14T01:52:28.232Z,54.17
2023-05-14T01:55:12.913Z,54.06
2023-05-14T01:57:56.078Z,54.25
2023-05-14T02:00:39.499Z,54.70
2023-05-14T02:03:22.813Z,54.47
2023-05-14T02:06:06.036Z,54.85
2023-05-14T02:08:49.136Z,55.72
2023-05-14T02:11:33.650Z,56.50
2023-05-14T02:14:16.952Z,56.26
2023-05-14T02:17:00.126Z,57.36
2023-05-14T02:19:43.250Z,58.02
2023-05-14T02:22:26.311Z,58.31
2023-05-14T02:25:10.935Z,59.44
2023-05-14T02:27:55.456Z,59.66
2023-05-14T02:30:38.552Z,60.34
2023-05-14T02:33:21.729Z,59.69
2023-05-14T02:36:05.100Z,60.13
2023-05-14T02:38:48.272Z,60.16
2023-05-14T02:41:31.532Z,60.36
2023-05-14T02:44:16.039Z,60.36
2023-05-14T02:46:59.197Z,60.95
2023-05-14T02:49:42.312Z,60.59
2023-05-14T02:52:25.529Z,59.83
2023-05-14T02:55:09.386Z,59.63
2023-05-14T02:57:53.324Z,59.67
2023-05-14T03:00:37.950Z,59.14
2023-05-14T03:03:21.567Z,59.81
2023-05-14T03:06:05.497Z,59.23
2023-05-14T03:08:48.581Z,59.59
2023-05-14T03:11:31.670Z,59.62
2023-05-14T03:14:14.825Z,59.54
2023-05-14T03:16:59.446Z,59.85
2023-05-14T03:19:42.538Z,59.90
2023-05-14T03:22:25.656Z,59.82
2023-05-14T03:25:09.249Z,59.96
2023-05-14T03:27:52.392Z,59.92
2023-05-14T03:30:35.546Z,60.03
2023-05-14T03:33:20.162Z,61.08
2023-05-14T03:36:03.293Z,61.35
2023-05-14T03:38:46.601Z,62.20
2023-05-14T03:41:29.672Z,63.11
2023-05-14T03:44:12.755Z,63.96
2023-05-14T03:46:55.945Z,63.62
2023-05-14T03:49:40.558Z,64.18
2023-05-14T03:52:23.762Z,64.39
2023-05-14T03:55:07.725Z,63.23
2023-05-14T03:57:51.225Z,63.10
2023-05-14T04:00:34.368Z,62.80
2023-05-14T04:03:17.593Z,61.77
2023-05-14T04:06:02.703Z,61.94
2023-05-14T04:08:45.808Z,61.66
2023-05-14T04:11:28.881Z,61.40
2023-05-14T04:14:12.275Z,61.26
2023-05-14T04:16:55.504Z,61.66
2023-05-14T04:19:39.419Z,62.85
2023-05-14T04:22:23.979Z,62.58
2023-05-14T04:25:08.018Z,60.09
2023-05-14T04:27:51.280Z,60.31
2023-05-14T04:30:34.466Z,60.74
2023-05-14T04:33:17.591Z,58.92
2023-05-14T04:36:00.975Z,60.29
2023-05-14T04:38:45.526Z,60.67
2023-05-14T04:41:28.679Z,61.80
2023-05-14T04:44:14.087Z,59.99
2023-05-14T04:46:57.326Z,61.21
2023-05-14T04:49:40.459Z,61.70
2023-05-14T04:52:23.592Z,60.89
2023-05-14T04:55:09.521Z,62.16
2023-05-14T04:57:52.694Z,62.14
2023-05-14T05:00:35.780Z,62.31
2023-05-14T05:03:19.047Z,63.62
2023-05-14T05:06:02.595Z,62.69
2023-05-14T05:08:45.779Z,66.06
2023-05-14T05:11:30.234Z,66.22
2023-05-14T05:14:13.329Z,66.83
2023-05-14T05:16:56.531Z,65.73
2023-05-14T05:19:44.177Z,67.31
2023-05-14T05:22:27.772Z,68.97
2023-05-14T05:25:13.056Z,71.03
2023-05-14T05:27:57.760Z,70.06
2023-05-14T05:30:41.335Z,72.23
2023-05-14T05:33:24.714Z,73.40
2023-05-14T05:36:08.758Z,74.17
2023-05-14T05:38:51.892Z,75.82
2023-05-14T05:41:35.085Z,78.31
2023-05-14T05:44:19.684Z,78.15
2023-05-14T05:47:02.870Z,77.63
2023-05-14T05:49:46.116Z,78.74
2023-05-14T05:52:29.206Z,79.04
2023-05-14T05:55:12.450Z,80.93
2023-05-14T05:57:55.656Z,81.34
2023-05-14T06:00:40.295Z,83.87
2023-05-14T06:03:23.744Z,81.91
2023-05-14T06:06:07.425Z,81.21
2023-05-14T06:08:50.679Z,82.16
2023-05-14T06:11:34.267Z,82.04
2023-05-14T06:14:17.674Z,80.75
2023-05-14T06:17:02.346Z,82.76
2023-05-14T06:19:45.973Z,82.04
2023-05-14T06:22:29.072Z,83.23
2023-05-14T06:25:12.896Z,83.88
2023-05-14T06:27:56.048Z,85.65
2023-05-14T06:30:39.239Z,84.68
2023-05-14T06:33:30.895Z,84.34
2023-05-14T06:36:14.416Z,85.05
2023-05-14T06:38:57.564Z,86.24
2023-05-14T06:41:40.727Z,85.98
2023-05-14T06:44:23.841Z,85.38
2023-05-14T06:47:08.596Z,87.91
2023-05-14T06:49:53.084Z,87.63
2023-05-14T06:52:36.184Z,88.43
2023-05-14T06:55:19.479Z,84.90
2023-05-14T06:58:02.579Z,86.16
2023-05-14T07:00:45.834Z,86.41
2023-05-14T07:03:29.218Z,87.98
2023-05-14T07:06:14.006Z,84.75
2023-05-14T07:08:57.119Z,84.90
2023-05-14T07:11:40.270Z,80.78
2023-05-14T07:14:23.444Z,82.45
2023-05-14T07:17:06.577Z,82.36
2023-05-14T07:19:49.744Z,84.04
2023-05-14T07:22:34.213Z,82.04
2023-05-14T07:25:17.470Z,81.41
2023-05-14T07:28:00.669Z,83.06
2023-05-14T07:30:43.807Z,85.62
2023-05-14T07:33:27.223Z,84.58
2023-05-14T07:36:10.558Z,85.15
2023-05-14T07:38:55.175Z,85.89
2023-05-14T07:41:39.285Z,86.49
2023-05-14T07:44:22.580Z,87.32
2023-05-14T07:47:07.557Z,88.10
2023-05-14T07:49:50.834Z,89.24
2023-05-14T07:52:34.089Z,91.47
2023-05-14T07:55:18.597Z,90.20
2023-05-14T07:58:01.687Z,90.00
2023-05-14T08:00:44.833Z,90.06
2023-05-14T08:03:28.109Z,89.06
2023-05-14T08:06:11.730Z,89.53
2023-05-14T08:08:54.926Z,88.52
2023-05-14T08:11:39.449Z,89.05
2023-05-14T08:14:22.629Z,88.25
2023-05-14T08:17:06.254Z,87.80
2023-05-14T08:19:49.650Z,86.58
2023-05-14T08:22:32.834Z,85.47
2023-05-14T08:25:15.963Z,83.73
2023-05-14T08:28:01.465Z,83.51
2023-05-14T08:30:44.577Z,82.63
2023-05-14T08:33:27.776Z,81.25
2023-05-14T08:36:11.089Z,80.75
2023-05-14T08:38:54.207Z,79.40
2023-05-14T08:41:37.548Z,77.42
2023-05-14T08:44:29.760Z,78.33
2023-05-14T08:47:14.903Z,78.25
2023-05-14T08:50:04.515Z,76.51
2023-05-14T08:52:47.943Z,75.38
2023-05-14T08:55:33.538Z,77.06
2023-05-14T08:58:16.957Z,76.40
2023-05-14T09:01:01.693Z,74.97
2023-05-14T09:03:45.548Z,75.38
2023-05-14T09:06:28.850Z,76.41
2023-05-14T09:09:13.128Z,75.42
2023-05-14T09:11:56.623Z,76.11
2023-05-14T09:14:39.756Z,77.50
2023-05-14T09:17:27.509Z,79.19
2023-05-14T09:20:14.009Z,80.58
2023-05-14T09:22:58.414Z,78.89
2023-05-14T09:25:41.534Z,78.13
2023-05-14T09:28:28.177Z,77.58
2023-05-14T09:31:11.553Z,77.81
2023-05-14T09:38:49.936Z,77.77
2023-05-14T09:41:58.770Z,77.03
2023-05-14T09:44:41.867Z,77.19
2023-05-14T09:47:25.404Z,78.21
2023-05-14T09:50:09.627Z,78.55
2023-05-14T09:52:56.739Z,77.76
2023-05-14T09:55:39.895Z,77.50
2023-05-14T09:58:22.997Z,76.86
2023-05-14T10:01:07.424Z,76.14
2023-05-14T10:03:50.767Z,77.60
2023-05-14T10:06:37.945Z,77.89
2023-05-14T10:09:26.572Z,76.75
2023-05-14T10:12:10.645Z,77.06
2023-05-14T10:14:58.767Z,79.40
2023-05-14T10:17:45.894Z,76.03
2023-05-14T10:20:29.735Z,75.68
2023-05-14T10:23:13.331Z,77.51
2023-05-14T10:25:58.619Z,76.98
2023-05-14T10:28:42.456Z,77.81
2023-05-14T10:31:25.774Z,78.14
2023-05-14T10:34:34.710Z,81.82
2023-05-14T10:37:19.454Z,82.51
2023-05-14T10:40:06.267Z,83.24
2023-05-14T10:42:51.176Z,82.17
2023-05-14T10:45:34.475Z,81.57
2023-05-14T10:48:19.844Z,82.10
2023-05-14T10:51:03.282Z,82.98
2023-05-14T10:53:46.489Z,80.39
2023-05-14T10:56:30.408Z,79.24
2023-05-14T10:59:15.021Z,79.36
2023-05-14T11:01:59.860Z,78.37
2023-05-14T11:04:43.071Z,78.82
2023-05-14T11:07:30.165Z,78.97
2023-05-14T11:10:15.214Z,78.65
2023-05-14T11:12:59.011Z,78.03
2023-05-14T11:15:47.327Z,79.36
2023-05-14T11:18:31.727Z,79.44
2023-05-14T11:21:14.964Z,80.81
2023-05-14T11:23:58.425Z,81.29
2023-05-14T11:26:42.454Z,80.15
2023-05-14T11:29:25.728Z,80.88
2023-05-14T11:32:10.975Z,82.17
2023-05-14T11:34:54.698Z,80.82
2023-05-14T11:37:37.912Z,78.04
2023-05-14T11:40:21.700Z,75.59
2023-05-14T11:43:05.238Z,74.78
2023-05-14T11:45:52.569Z,74.31
2023-05-14T11:48:37.189Z,73.08
2023-05-14T11:51:20.609Z,72.00
2023-05-14T11:54:04.160Z,69.92
2023-05-14T11:56:52.172Z,69.33
2023-05-14T11:59:35.705Z,68.40
2023-05-14T12:02:20.136Z,68.57
2023-05-14T12:05:07.687Z,67.16
2023-05-14T12:07:50.765Z,66.38
2023-05-14T12:10:43.334Z,64.48
2023-05-14T12:13:27.872Z,65.64
2023-05-14T12:16:11.062Z,65.32
2023-05-14T12:18:54.278Z,64.09
2023-05-14T12:21:39.320Z,64.13
2023-05-14T12:24:22.777Z,64.88
2023-05-14T12:27:06.440Z,64.94
2023-05-14T12:29:49.582Z,64.76
2023-05-14T12:32:33.502Z,65.39
2023-05-14T12:35:16.713Z,65.52
2023-05-14T12:38:01.251Z,66.90
2023-05-14T12:40:44.434Z,67.11
2023-05-14T12:43:31.571Z,67.38
2023-05-14T12:46:14.661Z,66.07
2023-05-14T12:48:58.529Z,65.85
2023-05-14T12:51:41.754Z,66.08
2023-05-14T12:54:26.314Z,65.85
2023-05-14T12:57:09.480Z,67.62
2023-05-14T12:59:52.661Z,67.54
2023-05-14T13:02:43.053Z,67.79
2023-05-14T13:05:27.172Z,68.92
2023-05-14T13:08:11.058Z,68.42
2023-05-14T13:10:56.792Z,69.67
2023-05-14T13:13:39.825Z,71.43
2023-05-14T13:16:23.107Z,73.56
2023-05-14T13:19:06.301Z,73.37
2023-05-14T13:21:49.617Z,72.84
2023-05-14T13:24:32.763Z,69.95
2023-05-14T13:27:17.352Z,69.78
2023-05-14T13:30:00.540Z,69.21
2023-05-14T13:32:43.755Z,70.65
2023-05-14T13:35:27.113Z,69.65
2023-05-14T13:38:10.761Z,69.81
2023-05-14T13:40:54.530Z,69.60
2023-05-14T13:43:39.092Z,70.13
2023-05-14T13:46:23.766Z,70.07
2023-05-14T13:49:06.938Z,69.35
2023-05-14T13:51:52.899Z,67.25
2023-05-14T13:54:36.089Z,68.19
2023-05-14T13:57:19.765Z,70.67
2023-05-14T14:00:05.234Z,70.16
2023-05-14T14:02:48.465Z,73.49
2023-05-14T14:05:31.863Z,70.48
2023-05-14T14:08:23.511Z,70.60
2023-05-14T14:11:07.643Z,71.52
2023-05-14T14:13:51.060Z,72.71
2023-05-14T14:16:36.434Z,72.85
2023-05-14T14:19:20.770Z,72.16
2023-05-14T14:22:03.994Z,72.95
2023-05-14T14:24:48.145Z,73.38
2023-05-14T14:27:34.067Z,74.68
2023-05-14T14:30:17.373Z,74.18
2023-05-14T14:33:02.346Z,74.31
2023-05-14T14:35:46.374Z,74.05
2023-05-14T14:38:29.763Z,74.58
2023-05-14T14:41:13.036Z,75.46
2023-05-14T14:43:56.231Z,73.72
2023-05-14T14:46:39.664Z,73.93
2023-05-14T14:49:24.762Z,73.82
2023-05-14T14:52:08.224Z,75.71
2023-05-14T14:54:51.569Z,76.65
2023-05-14T14:57:35.171Z,75.00
2023-05-14T15:00:20.700Z,75.15
2023-05-14T15:03:04.142Z,76.04
2023-05-14T15:05:49.252Z,76.88
2023-05-14T15:08:32.505Z,78.01
2023-05-14T15:11:15.732Z,79.34
2023-05-14T15:13:58.987Z,79.67
2023-05-14T15:16:43.770Z,79.75
2023-05-14T15:19:27.188Z,79.34
2023-05-14T15:22:11.708Z,80.21
2023-05-14T15:24:55.260Z,80.98
2023-05-14T15:27:38.541Z,80.69
2023-05-14T15:30:21.792Z,81.33
2023-05-14T15:33:05.217Z,83.99
2023-05-14T15:35:48.791Z,86.35
2023-05-14T15:38:33.799Z,86.10
2023-05-14T15:41:17.101Z,87.58
2023-05-14T15:44:00.729Z,88.42
2023-05-14T15:46:43.916Z,88.98
2023-05-14T15:49:27.234Z,90.04
2023-05-14T15:52:10.424Z,88.68
2023-05-14T15:54:56.250Z,87.47
2023-05-14T15:57:39.390Z,87.60
2023-05-14T16:00:26.554Z,87.38
2023-05-14T16:03:10.188Z,87.30
2023-05-14T16:05:53.303Z,86.75
2023-05-14T16:08:36.375Z,87.75
2023-05-14T16:11:21.634Z,86.95
2023-05-14T16:14:05.152Z,87.18
2023-05-14T16:16:48.255Z,87.68
2023-05-14T16:19:31.543Z,87.93
2023-05-14T16:22:14.689Z,87.17
2023-05-14T16:24:57.813Z,88.11
2023-05-14T16:27:42.335Z,87.63
2023-05-14T16:30:25.648Z,87.41
2023-05-14T16:33:09.102Z,88.54
2023-05-14T16:35:52.569Z,89.01
2023-05-14T16:38:41.337Z,90.83
2023-05-14T16:41:28.519Z,90.17
2023-05-14T16:44:13.068Z,92.54
2023-05-14T16:46:56.342Z,91.13
2023-05-14T16:49:39.442Z,91.47
2023-05-14T16:52:22.536Z,91.44
2023-05-14T16:55:06.277Z,91.92
2023-05-14T16:57:49.369Z,93.01
2023-05-14T17:00:33.822Z,90.69
2023-05-14T17:03:16.968Z,93.73
2023-05-14T17:06:01.142Z,94.29
2023-05-14T17:08:44.180Z,94.20
2023-05-14T17:11:27.390Z,93.62
2023-05-14T17:14:10.506Z,93.93
2023-05-14T17:16:55.047Z,92.90
2023-05-14T17:19:38.078Z,92.82
2023-05-14T17:22:21.175Z,91.39
2023-05-14T17:25:04.465Z,91.33
2023-05-14T17:27:47.653Z,91.60
2023-05-14T17:30:30.848Z,90.32
2023-05-14T17:33:15.405Z,91.64
2023-05-14T17:35:58.697Z,89.79
2023-05-14T17:38:41.965Z,90.61
2023-05-14T17:41:25.169Z,89.12
2023-05-14T17:44:08.399Z,90.37
2023-05-14T17:46:51.708Z,90.32
2023-05-14T17:49:36.728Z,92.33
2023-05-14T17:52:20.099Z,88.90
2023-05-14T17:55:03.152Z,87.68
2023-05-14T17:57:46.685Z,86.50
2023-05-14T18:00:29.982Z,87.18
2023-05-14T18:03:14.317Z,88.76
2023-05-14T18:06:00.075Z,89.22
2023-05-14T18:08:43.418Z,89.01
2023-05-14T18:11:26.539Z,87.59
2023-05-14T18:14:09.860Z,87.75
2023-05-14T18:16:53.037Z,88.12
2023-05-14T18:19:36.950Z,86.95
2023-05-14T18:22:21.764Z,88.75
2023-05-14T18:25:06.807Z,89.96
2023-05-14T18:27:49.866Z,90.98
2023-05-14T18:30:33.244Z,90.41
2023-05-14T18:33:16.448Z,90.54
2023-05-14T18:35:59.784Z,90.84
2023-05-14T18:38:44.263Z,90.27
2023-05-14T18:41:27.365Z,89.62
2023-05-14T18:44:10.471Z,91.03
2023-05-14T18:46:55.664Z,92.66
2023-05-14T18:49:40.606Z,93.70
2023-05-14T18:52:23.850Z,92.90
2023-05-14T18:55:09.306Z,92.52
2023-05-14T18:57:53.137Z,92.85
2023-05-14T19:00:36.372Z,90.24
2023-05-14T19:03:20.317Z,92.50
2023-05-14T19:06:03.515Z,92.54
2023-05-14T19:08:47.488Z,92.42
2023-05-14T19:11:31.984Z,86.40
2023-05-14T19:14:15.104Z,85.20
2023-05-14T19:16:58.899Z,85.85
2023-05-14T19:19:42.118Z,89.00
2023-05-14T19:22:25.300Z,90.64
2023-05-14T19:25:09.227Z,92.63
2023-05-14T19:27:55.373Z,92.23
2023-05-14T19:30:38.609Z,94.00
2023-05-14T19:33:21.755Z,91.29
2023-05-14T19:36:05.826Z,92.75
2023-05-14T19:38:49.402Z,91.01
2023-05-14T19:41:32.512Z,91.74
2023-05-14T19:44:17.166Z,92.68
2023-05-14T19:47:00.284Z,92.10
2023-05-14T19:49:43.436Z,93.66
2023-05-14T19:52:26.470Z,90.48
2023-05-14T19:55:10.102Z,89.46
2023-05-14T19:57:53.229Z,89.34
2023-05-14T20:00:38.071Z,88.19
2023-05-14T20:03:23.527Z,89.55
2023-05-14T20:06:07.165Z,88.65
2023-05-14T20:08:51.414Z,90.33
2023-05-14T20:11:34.503Z,91.44
2023-05-14T20:14:17.604Z,92.13
2023-05-14T20:17:02.619Z,92.50
2023-05-14T20:19:46.368Z,92.91
2023-05-14T20:22:29.412Z,92.47
2023-05-14T20:25:12.473Z,94.15
2023-05-14T20:27:55.641Z,94.57
2023-05-14T20:30:38.696Z,95.42
2023-05-14T20:33:23.278Z,95.23
2023-05-14T20:36:06.643Z,95.18
2023-05-14T20:38:49.628Z,95.71
2023-05-14T20:41:32.875Z,95.78
2023-05-14T20:44:16.801Z,95.94
2023-05-14T20:47:01.211Z,96.29
2023-05-14T20:49:45.764Z,96.74
2023-05-14T20:52:30.413Z,97.01
2023-05-14T20:55:13.452Z,98.12
2023-05-14T20:57:56.518Z,96.72
2023-05-14T21:00:39.631Z,97.82
2023-05-14T21:03:22.835Z,98.58
2023-05-14T21:06:07.596Z,97.90
2023-05-14T21:08:50.691Z,98.15
2023-05-14T21:11:33.757Z,97.94
2023-05-14T21:14:17.219Z,96.45
2023-05-14T21:17:00.269Z,96.77
2023-05-14T21:19:43.399Z,96.04
2023-05-14T21:22:28.058Z,95.83
2023-05-14T21:25:11.396Z,94.81
2023-05-14T21:27:54.690Z,94.64
2023-05-14T21:30:37.771Z,94.88
2023-05-14T21:33:21.010Z,94.64
2023-05-14T21:36:04.391Z,95.83
2023-05-14T21:38:48.896Z,95.79
2023-05-14T21:41:33.710Z,95.45
2023-05-14T21:44:16.716Z,95.41
2023-05-14T21:47:00.321Z,96.72
2023-05-14T21:49:43.415Z,95.48
2023-05-14T21:52:26.440Z,94.53
2023-05-14T21:55:11.410Z,94.23
2023-05-14T21:57:54.552Z,95.08
2023-05-14T22:00:37.643Z,94.64
2023-05-14T22:03:20.900Z,94.70
2023-05-14T22:06:04.212Z,95.36
2023-05-14T22:08:47.285Z,95.80
2023-05-14T22:11:31.716Z,96.73
2023-05-14T22:14:14.721Z,97.04
2023-05-14T22:16:58.270Z,95.85
2023-05-14T22:19:41.414Z,96.15
2023-05-14T22:22:24.449Z,96.46
2023-05-14T22:25:08.081Z,96.23
2023-05-14T22:27:52.580Z,96.11
2023-05-14T22:30:35.661Z,96.94
2023-05-14T22:33:19.374Z,99.29
2023-05-14T22:36:02.396Z,100.00
2023-05-14T22:38:45.420Z,98.58
2023-05-14T22:41:28.960Z,98.51
2023-05-14T22:44:13.442Z,96.64
2023-05-14T22:46:56.687Z,94.78
2023-05-14T22:49:40.337Z,97.10
2023-05-14T22:52:23.458Z,96.07
2023-05-14T22:55:07.279Z,96.73
2023-05-14T22:57:50.563Z,96.97
2023-05-14T23:00:35.226Z,97.81
2023-05-14T23:03:18.336Z,99.16
2023-05-14T23:06:01.406Z,97.04
2023-05-14T23:08:44.516Z,94.80
2023-05-14T23:11:27.753Z,94.86
2023-05-14T23:14:10.816Z,93.84
2023-05-14T23:16:55.207Z,92.43
2023-05-14T23:19:38.411Z,92.80
2023-05-14T23:22:21.569Z,93.44
2023-05-14T23:25:05.307Z,92.00
2023-05-14T23:27:48.376Z,92.75
2023-05-14T23:30:31.416Z,93.05
2023-05-14T23:33:15.897Z,92.73
2023-05-14T23:35:59.221Z,92.03
2023-05-14T23:38:42.409Z,91.66
2023-05-14T23:41:26.058Z,91.18
2023-05-14T23:44:09.135Z,91.11
2023-05-14T23:46:52.184Z,91.02
2023-05-14T23:49:36.796Z,90.66
2023-05-14T23:52:19.887Z,92.36
2023-05-14T23:55:03.080Z,90.61
2023-05-14T23:57:46.301Z,90.83
